Terminal Aerodrome Forecast
Issued by NWS

Home | Current Version | Previous Version | Text Only | Print | Product List | Glossary On
Versions: 1 2 3 4 5 6 7 8 9 10 11 12 13 14 15 16 17 18 19 20 21 22 23 24 25 26 27 28 29 30 31 32 33 34 35 36
000
FTUS42 KCAE 052320
TAFCUB
TAF
KCUB 052320Z 0600/0624 VRB03KT P6SM VCSH SCT030 OVC060
     FM060200 07007KT 3SM -RA BR OVC015
     FM060900 06007KT 2SM -RA BR OVC006 WS020/17040KT
     FM061400 07008KT 3SM -RA BR OVC007
     FM062000 27008KT 4SM BR OVC012=

USA.gov is the U.S. government's official web portal to all federal, state and local government web resources and services.